M/V Tuna — XUGC9 — position and weather

sailwx.info

Track history (hours):
 
Tides and Currents Weather Stations Pressure Air Temp Water Temp Dewpoint Dewpoint Depression Visibility Wind Speed Wind Dir Waves Ship Positions

M/V Tuna

Last reported at 2015-Jul-01 21:19 UTC. Time now 2015-Jul-03 22:06 UTC.
Position N 46°05' E 030°31'.

Length 114 m; draft 2.4 m.

Type: Cargo ship. MMSI: 514778000.

Date/timePositionNaut miles runAvg speedWind from/ knotsBaromVisibWave heightAir tempDewpointWater temp
2015-Jul-01 21:19N 46°05' E 030°31'0 0.0
2015-Jul-01 20:30N 46°05' E 030°31'0 0.0
2015-Jul-01 19:33N 46°05' E 030°31'0 0.0
2015-Jul-01 18:33N 46°05' E 030°31'0 0.0
2015-Jul-01 17:33N 46°05' E 030°31'313 6.8
2015-Jun-29 19:24N 40°60' E 028°60'3 3.8
2015-Jun-29 18:32N 40°57' E 029°02'5 5.1
2015-Jun-29 17:33N 40°54' E 029°07'3 3.1
2015-Jun-29 16:29N 40°52' E 029°11'0 0.0
2015-Jun-29 15:33N 40°52' E 029°11'0 0.0
2015-Jun-29 14:31N 40°52' E 029°11'0 0.0
2015-Jun-29 13:28N 40°52' E 029°11'0 0.0
2015-Jun-29 12:19N 40°52' E 029°11'0 0.1
2015-Jun-29 11:25N 40°52' E 029°11'0 0.0
2015-Jun-29 10:29N 40°52' E 029°11'0 0.1
2015-Jun-29 09:31N 40°52' E 029°11'0 0.1
2015-Jun-29 08:34N 40°52' E 029°11'0 0.0
2015-Jun-29 07:33N 40°52' E 029°11'5 4.5
2015-Jun-29 06:33N 40°48' E 029°12'8 7.6
2015-Jun-29 05:32N 40°45' E 029°21'4 0.1
2015-Jun-27 10:33N 40°45' E 029°27'7 7.0
2015-Jun-27 09:33N 40°45' E 029°17'7 7.0
2015-Jun-27 08:33N 40°48' E 029°09'7 6.9
2015-Jun-27 07:29N 40°51' E 029°00'7 6.8
2015-Jun-27 06:32N 40°57' E 028°56'  
Track history (hours):
 
Tides and Currents Weather Stations Pressure Air Temp Water Temp Dewpoint Dewpoint Depression Visibility Wind Speed Wind Dir Waves Ship Positions

M/V Tuna

Last reported at 2015-Jul-01 21:19 UTC. Time now 2015-Jul-03 22:06 UTC.
Position N 46°05' E 030°31'.

Length 114 m; draft 2.4 m.

Type: Cargo ship. MMSI: 514778000.

Date/timePositionNaut miles runAvg speedWind from/ knotsBaromVisibWave heightAir tempDewpointWater temp
2015-Jul-01 21:19N 46°05' E 030°31'0 0.0
2015-Jul-01 20:30N 46°05' E 030°31'0 0.0
2015-Jul-01 19:33N 46°05' E 030°31'0 0.0
2015-Jul-01 18:33N 46°05' E 030°31'0 0.0
2015-Jul-01 17:33N 46°05' E 030°31'313 6.8
2015-Jun-29 19:24N 40°60' E 028°60'3 3.8
2015-Jun-29 18:32N 40°57' E 029°02'5 5.1
2015-Jun-29 17:33N 40°54' E 029°07'3 3.1
2015-Jun-29 16:29N 40°52' E 029°11'0 0.0
2015-Jun-29 15:33N 40°52' E 029°11'0 0.0
2015-Jun-29 14:31N 40°52' E 029°11'0 0.0
2015-Jun-29 13:28N 40°52' E 029°11'0 0.0
2015-Jun-29 12:19N 40°52' E 029°11'0 0.1
2015-Jun-29 11:25N 40°52' E 029°11'0 0.0
2015-Jun-29 10:29N 40°52' E 029°11'0 0.1
2015-Jun-29 09:31N 40°52' E 029°11'0 0.1
2015-Jun-29 08:34N 40°52' E 029°11'0 0.0
2015-Jun-29 07:33N 40°52' E 029°11'5 4.5
2015-Jun-29 06:33N 40°48' E 029°12'8 7.6
2015-Jun-29 05:32N 40°45' E 029°21'4 0.1
2015-Jun-27 10:33N 40°45' E 029°27'7 7.0
2015-Jun-27 09:33N 40°45' E 029°17'7 7.0
2015-Jun-27 08:33N 40°48' E 029°09'7 6.9
2015-Jun-27 07:29N 40°51' E 029°00'7 6.8
2015-Jun-27 06:32N 40°57' E 028°56'  

Dump ship's entire track history